createdAt,value
2023-04-27T00:00:11.551Z,5.30
2023-04-27T00:02:58.033Z,5.50
2023-04-27T00:05:44.863Z,3.33
2023-04-27T00:08:31.578Z,5.05
2023-04-27T00:11:17.888Z,4.47
2023-04-27T00:14:04.378Z,5.65
2023-04-27T00:16:52.475Z,10.30
2023-04-27T00:19:39.884Z,8.20
2023-04-27T00:22:26.828Z,8.20
2023-04-27T00:25:13.053Z,5.53
2023-04-27T00:27:59.770Z,5.85
2023-04-27T00:30:46.604Z,5.05
2023-04-27T00:33:32.817Z,3.38
2023-04-27T00:36:19.290Z,5.90
2023-04-27T00:39:07.350Z,6.28
2023-04-27T00:41:53.824Z,5.88
2023-04-27T00:44:40.073Z,4.78
2023-04-27T00:47:27.354Z,6.05
2023-04-27T00:50:14.887Z,3.45
2023-04-27T00:53:01.790Z,3.58
2023-04-27T00:55:48.960Z,5.00
2023-04-27T00:58:35.078Z,5.25
2023-04-27T01:01:21.396Z,7.07
2023-04-27T01:04:09.358Z,5.93
2023-04-27T01:06:55.611Z,5.97
2023-04-27T01:09:42.332Z,5.00
2023-04-27T01:12:28.317Z,4.53
2023-04-27T01:15:14.618Z,6.28
2023-04-27T01:18:05.933Z,4.78
2023-04-27T01:20:51.965Z,4.57
2023-04-27T01:23:39.354Z,3.70
2023-04-27T01:26:25.479Z,6.80
2023-04-27T01:29:11.968Z,6.78
2023-04-27T01:31:57.962Z,4.88
2023-04-27T01:34:46.341Z,4.30
2023-04-27T01:37:32.366Z,6.18
2023-04-27T01:40:18.751Z,8.52
2023-04-27T01:43:05.503Z,4.65
2023-04-27T01:45:51.601Z,5.20
2023-04-27T01:48:40.332Z,8.73
2023-04-27T01:51:26.421Z,6.28
2023-04-27T01:54:12.445Z,4.55
2023-04-27T01:56:58.956Z,3.50
2023-04-27T01:59:45.692Z,6.10
2023-04-27T02:02:32.106Z,5.13
2023-04-27T02:05:18.132Z,6.28
2023-04-27T02:08:05.757Z,10.98
2023-04-27T02:10:51.860Z,6.47
2023-04-27T02:13:38.645Z,4.85
2023-04-27T02:16:25.384Z,2.50
2023-04-27T02:19:11.659Z,4.85
2023-04-27T02:21:58.112Z,6.90
2023-04-27T02:24:44.295Z,5.18
2023-04-27T02:27:30.244Z,5.45
2023-04-27T02:30:19.252Z,5.18
2023-04-27T02:33:05.983Z,5.13
2023-04-27T02:36:10.950Z,6.03
2023-04-27T02:39:02.970Z,3.90
2023-04-27T02:41:49.735Z,4.57
2023-04-27T02:44:54.670Z,6.50
2023-04-27T02:47:59.247Z,6.10
2023-04-27T02:51:05.523Z,12.82
2023-04-27T02:54:13.559Z,5.78
2023-04-27T02:57:18.652Z,6.10
2023-04-27T03:00:09.634Z,6.13
2023-04-27T03:03:14.824Z,6.50
2023-04-27T03:06:20.060Z,5.13
2023-04-27T03:09:28.520Z,6.15
2023-04-27T03:12:17.035Z,7.18
2023-04-27T03:15:05.512Z,7.35
2023-04-27T03:18:11.791Z,6.88
2023-04-27T03:21:11.023Z,6.38
2023-04-27T03:23:56.833Z,7.57
2023-04-27T03:26:42.444Z,4.97
2023-04-27T03:29:28.912Z,6.82
2023-04-27T03:32:15.597Z,6.53
2023-04-27T03:35:02.985Z,5.38
2023-04-27T03:37:48.993Z,6.75
2023-04-27T03:40:36.597Z,7.50
2023-04-27T03:43:23.674Z,7.50
2023-04-27T03:46:09.920Z,9.40
2023-04-27T03:48:56.403Z,4.93
2023-04-27T03:51:44.058Z,6.55
2023-04-27T03:54:34.204Z,4.37
2023-04-27T03:57:20.200Z,6.78
2023-04-27T04:00:13.189Z,6.53
2023-04-27T04:02:59.298Z,5.70
2023-04-27T04:05:47.374Z,8.30
2023-04-27T04:08:34.345Z,10.23
2023-04-27T04:11:20.920Z,9.13
2023-04-27T04:14:07.196Z,9.48
2023-04-27T04:16:56.065Z,6.88
2023-04-27T04:19:45.975Z,6.70
2023-04-27T04:22:32.073Z,7.10
2023-04-27T04:25:21.109Z,6.95
2023-04-27T04:28:07.714Z,7.60
2023-04-27T04:30:54.038Z,7.82
2023-04-27T04:33:40.197Z,8.65
2023-04-27T04:36:25.997Z,13.52
2023-04-27T04:39:15.120Z,12.02
2023-04-27T04:42:04.231Z,10.63
2023-04-27T04:44:56.039Z,12.45
2023-04-27T04:47:42.773Z,41.45
2023-04-27T04:50:30.682Z,19.48
2023-04-27T04:53:18.008Z,14.27
2023-04-27T04:56:16.337Z,13.30
2023-04-27T04:59:03.102Z,9.82
2023-04-27T05:01:55.651Z,11.10
2023-04-27T05:04:41.696Z,7.15
2023-04-27T05:07:29.703Z,8.40
2023-04-27T05:10:16.080Z,6.78
2023-04-27T05:13:02.192Z,10.13
2023-04-27T05:15:48.904Z,51.20
2023-04-27T05:18:36.178Z,26.30
2023-04-27T05:21:22.689Z,17.33
2023-04-27T05:24:08.601Z,17.02
2023-04-27T05:26:55.172Z,43.17
2023-04-27T05:29:41.600Z,41.55
2023-04-27T05:32:27.929Z,28.52
2023-04-27T05:35:13.994Z,22.13
2023-04-27T05:38:00.323Z,17.83
2023-04-27T05:40:46.920Z,20.75
2023-04-27T05:43:35.273Z,14.38
2023-04-27T05:46:21.545Z,16.60
2023-04-27T05:49:07.380Z,11.32
2023-04-27T05:51:53.918Z,14.02
2023-04-27T05:54:40.069Z,11.30
2023-04-27T05:57:26.297Z,9.93
2023-04-27T06:00:14.335Z,9.50
2023-04-27T06:03:01.799Z,11.95
2023-04-27T06:05:50.222Z,8.30
2023-04-27T06:08:39.906Z,11.88
2023-04-27T06:11:26.357Z,10.23
2023-04-27T06:14:12.248Z,11.82
2023-04-27T06:16:58.479Z,11.15
2023-04-27T06:19:47.561Z,12.82
2023-04-27T06:22:34.178Z,13.70
2023-04-27T06:25:20.360Z,8.88
2023-04-27T06:28:08.778Z,18.75
2023-04-27T06:30:57.690Z,13.30
2023-04-27T06:33:44.573Z,13.10
2023-04-27T06:36:31.819Z,8.15
2023-04-27T06:39:17.920Z,10.10
2023-04-27T06:42:07.372Z,9.43
2023-04-27T06:47:43.170Z,8.07
2023-04-27T06:50:30.937Z,8.48
2023-04-27T06:53:17.573Z,13.13
2023-04-27T06:56:03.968Z,9.15
2023-04-27T06:58:50.071Z,8.13
2023-04-27T07:01:51.840Z,12.05
2023-04-27T07:04:38.918Z,14.15
2023-04-27T07:07:25.454Z,9.75
2023-04-27T07:10:15.642Z,11.57
2023-04-27T07:13:01.616Z,11.18
2023-04-27T07:15:47.881Z,10.85
2023-04-27T07:18:34.236Z,11.18
2023-04-27T07:21:21.677Z,23.48
2023-04-27T07:24:08.194Z,12.32
2023-04-27T07:26:54.334Z,10.93
2023-04-27T07:29:40.306Z,21.70
2023-04-27T07:32:29.889Z,9.30
2023-04-27T07:35:15.495Z,9.32
2023-04-27T07:38:03.589Z,11.40
2023-04-27T07:40:49.979Z,10.07
2023-04-27T07:43:36.531Z,19.33
2023-04-27T07:46:22.307Z,12.00
2023-04-27T07:49:08.768Z,12.40
2023-04-27T07:51:54.569Z,11.95
2023-04-27T07:54:44.516Z,13.45
2023-04-27T07:57:32.788Z,14.23
2023-04-27T08:00:20.087Z,13.13
2023-04-27T08:03:06.351Z,11.95
2023-04-27T08:05:56.758Z,13.48
2023-04-27T08:08:43.258Z,13.77
2023-04-27T08:11:29.288Z,12.77
2023-04-27T08:14:15.361Z,12.75
2023-04-27T08:17:01.601Z,13.38
2023-04-27T08:19:48.272Z,13.73
2023-04-27T08:22:35.023Z,13.25
2023-04-27T08:25:21.470Z,15.02
2023-04-27T08:28:08.476Z,12.70
2023-04-27T08:30:55.400Z,12.82
2023-04-27T08:33:42.422Z,16.95
2023-04-27T08:36:31.475Z,13.00
2023-04-27T08:39:18.492Z,14.90
2023-04-27T08:42:14.003Z,11.57
2023-04-27T08:45:00.557Z,13.13
2023-04-27T08:47:47.071Z,15.10
2023-04-27T08:50:33.653Z,15.43
2023-04-27T08:53:26.460Z,10.32
2023-04-27T08:56:12.897Z,10.85
2023-04-27T08:59:05.265Z,15.70
2023-04-27T09:02:05.728Z,15.88
2023-04-27T09:04:52.593Z,14.55
2023-04-27T09:07:38.745Z,12.18
2023-04-27T09:10:25.060Z,10.07
2023-04-27T09:13:14.507Z,12.65
2023-04-27T09:16:00.836Z,9.93
2023-04-27T09:18:47.866Z,11.77
2023-04-27T09:21:35.202Z,9.13
2023-04-27T09:24:21.366Z,13.30
2023-04-27T09:27:09.072Z,10.25
2023-04-27T09:29:56.150Z,11.15
2023-04-27T09:33:17.651Z,10.90
2023-04-27T09:36:07.807Z,10.98
2023-04-27T09:38:55.742Z,9.63
2023-04-27T09:41:42.794Z,12.07
2023-04-27T09:44:30.839Z,7.60
2023-04-27T09:47:17.502Z,13.50
2023-04-27T09:50:08.618Z,10.60
2023-04-27T09:52:55.131Z,9.90
2023-04-27T09:55:45.908Z,14.55
2023-04-27T09:59:10.769Z,12.07
2023-04-27T10:02:20.973Z,10.25
2023-04-27T10:05:43.575Z,9.80
2023-04-27T10:11:19.864Z,8.70
2023-04-27T10:14:11.323Z,11.80
2023-04-27T10:17:03.004Z,15.50
2023-04-27T10:20:04.679Z,7.80
2023-04-27T10:22:53.580Z,7.90
2023-04-27T10:25:41.909Z,8.40
2023-04-27T10:28:42.712Z,7.30
2023-04-27T10:31:35.742Z,7.03
2023-04-27T10:34:25.644Z,10.00
2023-04-27T10:37:12.718Z,9.40
2023-04-27T10:40:08.445Z,6.50
2023-04-27T10:42:57.446Z,7.95
2023-04-27T10:45:52.423Z,13.15
2023-04-27T10:48:47.909Z,12.00
2023-04-27T10:51:34.406Z,10.27
2023-04-27T10:54:29.651Z,6.53
2023-04-27T10:57:18.416Z,9.45
2023-04-27T11:03:23.616Z,9.95
2023-04-27T11:06:10.398Z,8.02
2023-04-27T11:09:00.402Z,9.25
2023-04-27T11:12:16.774Z,9.65
2023-04-27T11:15:13.489Z,8.25
2023-04-27T11:18:13.032Z,9.45
2023-04-27T11:21:14.787Z,6.72
2023-04-27T11:24:12.129Z,8.55
2023-04-27T11:27:01.074Z,12.63
2023-04-27T11:29:57.384Z,10.32
2023-04-27T11:32:48.279Z,10.75
2023-04-27T11:35:35.951Z,7.63
2023-04-27T11:38:22.908Z,11.80
2023-04-27T11:41:12.203Z,6.80
2023-04-27T11:47:23.530Z,10.93
2023-04-27T11:50:09.938Z,7.85
2023-04-27T11:53:08.871Z,9.55
2023-04-27T11:56:02.526Z,6.90
2023-04-27T11:59:06.196Z,10.50
2023-04-27T12:02:02.333Z,8.55
2023-04-27T12:05:04.629Z,8.18
2023-04-27T12:08:04.558Z,7.63
2023-04-27T12:11:03.895Z,10.27
2023-04-27T12:13:51.391Z,9.32
2023-04-27T12:16:45.055Z,7.37
2023-04-27T12:19:36.272Z,7.75
2023-04-27T12:22:25.455Z,7.00
2023-04-27T12:25:15.567Z,5.35
2023-04-27T12:28:12.583Z,6.50
2023-04-27T12:31:13.355Z,6.90
2023-04-27T12:34:21.428Z,5.53
2023-04-27T12:37:17.653Z,5.90
2023-04-27T12:40:17.577Z,9.80
2023-04-27T12:43:10.060Z,7.80
2023-04-27T12:46:23.088Z,5.70
2023-04-27T12:50:01.813Z,4.47
2023-04-27T12:53:37.529Z,10.85
2023-04-27T12:57:30.914Z,7.55
2023-04-27T13:00:45.529Z,9.55
2023-04-27T13:03:39.778Z,6.03
2023-04-27T13:06:57.554Z,6.47
2023-04-27T13:10:47.222Z,5.13
2023-04-27T13:13:47.992Z,6.30
2023-04-27T13:16:36.964Z,5.70
2023-04-27T13:19:33.788Z,7.28
2023-04-27T13:22:52.767Z,4.10
2023-04-27T13:25:49.898Z,5.20
2023-04-27T13:28:53.376Z,5.80
2023-04-27T13:31:44.932Z,4.28
2023-04-27T13:34:47.508Z,6.82
2023-04-27T13:37:48.465Z,5.60
2023-04-27T13:40:54.329Z,5.47
2023-04-27T13:47:37.688Z,5.43
2023-04-27T13:51:00.843Z,4.35
2023-04-27T13:54:14.186Z,3.67
2023-04-27T13:57:09.768Z,3.30
2023-04-27T14:00:35.361Z,6.35
2023-04-27T14:03:31.898Z,3.35
2023-04-27T14:07:00.676Z,3.78
2023-04-27T14:13:48.284Z,6.28
2023-04-27T14:16:44.404Z,4.93
2023-04-27T14:19:32.073Z,4.10
2023-04-27T14:22:18.630Z,6.25
2023-04-27T14:25:07.395Z,5.53
2023-04-27T14:28:00.850Z,6.68
2023-04-27T14:30:46.855Z,3.67
2023-04-27T14:33:37.744Z,4.65
2023-04-27T14:36:27.541Z,6.35
2023-04-27T14:39:15.972Z,2.70
2023-04-27T14:42:28.681Z,4.35
2023-04-27T14:45:17.992Z,4.35
2023-04-27T14:48:09.164Z,5.97
2023-04-27T14:51:11.441Z,4.45
2023-04-27T14:54:02.488Z,4.72
2023-04-27T14:57:00.727Z,4.13
2023-04-27T14:59:52.981Z,5.63
2023-04-27T15:02:46.163Z,6.78
2023-04-27T15:05:38.878Z,5.72
2023-04-27T15:08:25.370Z,4.40
2023-04-27T15:30:21.463Z,5.63
2023-04-27T15:34:13.810Z,5.47
2023-04-27T15:38:09.428Z,6.82
2023-04-27T16:06:01.902Z,4.32
2023-04-27T16:09:48.346Z,3.33
2023-04-27T16:36:24.652Z,4.55
2023-04-27T16:39:10.781Z,3.22
2023-04-27T16:41:58.174Z,4.38
2023-04-27T16:44:45.739Z,3.40
2023-04-27T16:47:32.577Z,3.28
2023-04-27T16:50:18.220Z,5.68
2023-04-27T16:53:10.073Z,5.22
2023-04-27T16:56:01.510Z,2.92
2023-04-27T16:58:47.491Z,2.90
2023-04-27T17:01:33.441Z,3.08
2023-04-27T17:04:19.301Z,4.93
2023-04-27T17:07:05.007Z,7.20
2023-04-27T17:09:51.014Z,6.03
2023-04-27T17:12:37.338Z,7.70
2023-04-27T17:15:26.221Z,5.03
2023-04-27T17:18:11.952Z,5.65
2023-04-27T17:20:58.351Z,2.85
2023-04-27T17:23:46.513Z,3.30
2023-04-27T17:26:33.410Z,5.13
2023-04-27T17:29:19.685Z,4.20
2023-04-27T17:32:05.631Z,4.40
2023-04-27T17:34:51.322Z,3.95
2023-04-27T17:37:38.121Z,2.47
2023-04-27T17:40:24.685Z,2.78
2023-04-27T17:43:10.693Z,3.25
2023-04-27T17:45:57.047Z,5.13
2023-04-27T17:48:44.318Z,5.90
2023-04-27T17:51:32.811Z,7.07
2023-04-27T17:54:18.668Z,3.65
2023-04-27T17:57:04.169Z,4.28
2023-04-27T17:59:50.950Z,3.95
2023-04-27T18:02:37.102Z,5.03
2023-04-27T18:05:22.982Z,6.05
2023-04-27T18:08:08.517Z,5.32
2023-04-27T18:10:54.222Z,4.47
2023-04-27T18:13:40.879Z,5.88
2023-04-27T18:16:26.826Z,7.10
2023-04-27T18:19:13.113Z,2.45
2023-04-27T18:21:59.355Z,4.82
2023-04-27T18:24:46.071Z,5.95
2023-04-27T18:27:33.041Z,19.25
2023-04-27T18:30:19.908Z,12.80
2023-04-27T18:33:06.803Z,13.05
2023-04-27T18:35:53.160Z,13.43
2023-04-27T18:38:39.293Z,16.05
2023-04-27T18:41:25.541Z,8.90
2023-04-27T18:44:12.272Z,9.90
2023-04-27T18:46:58.511Z,4.47
2023-04-27T18:49:44.386Z,6.03
2023-04-27T18:52:30.801Z,4.47
2023-04-27T18:55:17.251Z,14.73
2023-04-27T18:58:03.783Z,5.00
2023-04-27T19:00:49.565Z,3.97
2023-04-27T19:03:35.767Z,7.45
2023-04-27T19:06:21.801Z,4.90
2023-04-27T19:09:09.218Z,6.13
2023-04-27T19:12:02.951Z,3.92
2023-04-27T19:14:51.352Z,4.07
2023-04-27T19:17:37.251Z,4.97
2023-04-27T19:20:23.772Z,5.53
2023-04-27T19:23:12.564Z,4.75
2023-04-27T19:26:09.709Z,8.77
2023-04-27T19:28:58.274Z,5.65
2023-04-27T19:31:47.597Z,7.63
2023-04-27T19:34:33.228Z,8.63
2023-04-27T19:37:18.814Z,6.85
2023-04-27T19:40:05.199Z,6.13
2023-04-27T19:42:51.054Z,8.43
2023-04-27T19:45:38.845Z,7.63
2023-04-27T19:48:24.879Z,7.57
2023-04-27T19:51:11.284Z,4.68
2023-04-27T19:53:57.242Z,5.18
2023-04-27T19:56:43.590Z,3.40
2023-04-27T19:59:29.294Z,9.05
2023-04-27T20:02:16.077Z,8.95
2023-04-27T20:05:02.869Z,6.00
2023-04-27T20:07:51.744Z,3.30
2023-04-27T20:10:37.789Z,5.90
2023-04-27T20:13:23.528Z,7.13
2023-04-27T20:16:09.892Z,5.70
2023-04-27T20:19:18.053Z,5.95
2023-04-27T20:22:23.798Z,8.93
2023-04-27T20:25:10.117Z,7.05
2023-04-27T20:28:14.692Z,5.97
2023-04-27T20:31:19.352Z,7.30
2023-04-27T20:34:23.913Z,5.18
2023-04-27T20:37:09.705Z,4.38
2023-04-27T20:39:56.302Z,5.07
2023-04-27T20:42:43.402Z,6.18
2023-04-27T20:45:29.606Z,4.95
2023-04-27T20:48:15.446Z,8.68
2023-04-27T20:51:01.428Z,7.82
2023-04-27T20:53:47.000Z,4.95
2023-04-27T20:56:33.622Z,5.15
2023-04-27T20:59:19.074Z,6.43
2023-04-27T21:02:04.673Z,4.32
2023-04-27T21:04:51.183Z,6.43
2023-04-27T21:07:37.860Z,6.75
2023-04-27T21:10:24.118Z,5.82
2023-04-27T21:13:10.130Z,6.78
2023-04-27T21:15:56.014Z,10.63
2023-04-27T21:18:45.046Z,7.37
2023-04-27T21:21:50.181Z,6.95
2023-04-27T21:24:55.804Z,5.40
2023-04-27T21:28:01.683Z,5.85
2023-04-27T21:31:11.011Z,4.63
2023-04-27T21:34:17.250Z,6.88
2023-04-27T21:37:22.303Z,6.35
2023-04-27T21:40:08.764Z,3.80
2023-04-27T21:43:13.549Z,6.50
2023-04-27T21:46:18.477Z,8.35
2023-04-27T21:49:04.473Z,5.75
2023-04-27T21:52:10.852Z,4.25
2023-04-27T21:55:15.692Z,5.68
2023-04-27T21:58:01.908Z,5.10
2023-04-27T22:01:08.994Z,4.93
2023-04-27T22:03:55.537Z,7.63
2023-04-27T22:07:00.527Z,7.68
2023-04-27T22:10:05.900Z,5.07
2023-04-27T22:12:52.092Z,6.60
2023-04-27T22:15:38.559Z,5.72
2023-04-27T22:18:43.398Z,5.13
2023-04-27T22:21:48.831Z,4.57
2023-04-27T22:24:53.478Z,3.10
2023-04-27T22:27:58.672Z,4.28
2023-04-27T22:31:04.142Z,5.32
2023-04-27T22:34:09.119Z,5.47
2023-04-27T22:37:14.304Z,4.85
2023-04-27T22:40:19.258Z,4.50
2023-04-27T22:43:24.321Z,5.90
2023-04-27T22:46:11.036Z,5.63
2023-04-27T22:48:58.706Z,7.82
2023-04-27T22:52:04.122Z,7.32
2023-04-27T22:55:09.113Z,5.85
2023-04-27T22:58:13.572Z,4.57
2023-04-27T23:01:18.601Z,4.93
2023-04-27T23:04:26.695Z,5.15
2023-04-27T23:07:32.043Z,4.45
2023-04-27T23:10:39.016Z,5.57
2023-04-27T23:13:27.533Z,5.00
2023-04-27T23:16:14.912Z,6.18
2023-04-27T23:19:20.008Z,8.13
2023-04-27T23:22:25.151Z,7.03
2023-04-27T23:25:33.371Z,5.22
2023-04-27T23:28:37.700Z,5.93
2023-04-27T23:31:42.661Z,6.18
2023-04-27T23:34:47.866Z,3.50
2023-04-27T23:37:53.191Z,4.20
2023-04-27T23:40:58.343Z,6.63
2023-04-27T23:44:02.806Z,5.18
2023-04-27T23:46:49.025Z,4.03
2023-04-27T23:49:53.836Z,4.88
2023-04-27T23:52:58.774Z,7.80
2023-04-27T23:56:03.768Z,5.60
2023-04-27T23:59:08.840Z,6.30
